フィラデルフィア国際空港の過去48時間の天気

フィラデルフィア国際空港 (Philadelphia, Philadelphia International Airport)

現在時刻: 9/25 16:52 EDT (9/25 20:52 UTC) 以下の時間は現地時間です。

過去48時間のMETAR気象情報
時間 風向 風速(m/s) 視程 気温(℃) 湿度(%) 気圧(hPa) 天気現象
25 15:54 南西 4 10km以上 18.3 81 1005 弱い雨
25 15:25 西北西 5 10km以上 18.9 81 1006 弱い雨
25 15:19 北西 7 10km以上 19.4 76 1006 弱い雷雨
25 15:07 西南西 10 10km以上 23.9 60 1006 弱い雷雨
25 14:54 西 6 10km以上 24.4 54 1005
25 13:54 西南西 3 10km以上 23.3 56 1005.5
25 12:54 南南西 5 10km以上 21.7 63 1006
25 11:54 南南西 4 10km以上 20.6 65 1006.7
25 10:54 南南西 4 10km以上 20.6 65 1007.5
25 09:54 南南西 4 10km以上 19.4 71 1008.4
25 08:54 南南西 5 10km以上 17.8 78 1009
25 07:54 南南東 3 10km以上 16.1 87 1009.2
25 06:54 南南東 2 10km以上 16.1 87 1009.9
25 05:54 南東 2 10km以上 16.1 83 1010.3
25 04:54 南東 2 10km以上 16.1 81 1010.8
25 03:54 南南西 2 10km以上 16.7 75 1011.5 弱い雨
25 02:54 3 10km以上 17.2 67 1011.7
25 01:54 4 10km以上 17.2 67 1012.4
25 00:54 南西 3 10km以上 17.8 65 1012.7
24 23:54 南西 4 10km以上 17.2 63 1013.1
24 22:54 南西 5 10km以上 17.2 60 1013.6
24 21:54 南西 6 10km以上 17.2 56 1013.7
24 20:54 南西 5 10km以上 18.3 52 1013.7
24 19:54 南西 5 10km以上 18.9 52 1013.7
24 18:54 西 4 10km以上 20 40 1013.8
24 17:54 西 5 10km以上 21.1 39 1014
24 16:54 西南西 5 10km以上 21.7 35 1014.3
24 15:54 西 5 10km以上 21.1 36 1014.9
24 14:54 西 4 10km以上 20.6 38 1015.8
24 13:54 西南西 7 10km以上 19.4 42 1016.4
24 12:54 西南西 3 10km以上 18.3 43 1017.6
24 11:54 西 6 10km以上 17.2 48 1018.3
24 10:54 西 5 10km以上 14.4 57 1019.1
24 09:54 西南西 5 10km以上 13.3 60 1019.6
24 08:54 西北西 3 10km以上 12.2 61 1019.4
24 07:54 西 5 10km以上 11.1 61 1019.6
24 06:54 西 4 10km以上 10.6 63 1018.9
24 05:54 西 4 10km以上 9.4 69 1018.5
24 04:54 西 3 10km以上 10 66 1018.7
24 03:54 西 5 10km以上 11.1 59 1019.1
24 02:54 西 4 10km以上 11.1 59 1019
24 01:54 西北西 4 10km以上 11.7 54 1019.1
24 00:54 北北西 2 10km以上 11.7 54 1018.9
23 23:54 4 10km以上 12.2 53 1019.2
23 22:54 6 10km以上 13.3 49 1018.8
23 21:54 6 10km以上 14.4 42 1017.9
23 20:54 北北西 6 10km以上 15.6 36 1017.6
23 19:54 北北西 5 10km以上 16.7 34 1016.7
23 18:54 北西 7 10km以上 18.3 32 1015.9
23 17:54 北西 7 10km以上 19.4 31 1015.1
23 16:54 北北西 10 10km以上 19.4 31 1014.6
KPHL 251954Z 23007KT 7SM -RA SCT035 BKN080 BKN220 18/15 A2968 RMK AO2 PK WND 29036/1909 WSHFT 1903 RAB00 TSB07E25 SLP050 P0011 T01830150
KPHL 251925Z 30010G19KT 7SM -RA SCT035 BKN080 BKN220 19/16 A2971 RMK AO2 PK WND 29036/1909 WSHFT 1903 LTG DSNT NE RAB00 TSB07E25 P0008 T01890156
KPHL 251919Z 31013G29KT 7SM -TSRA SCT043CB BKN080 BKN220 19/15 A2970 RMK AO2 PK WND 29036/1909 WSHFT 1903 LTG DSNT NE RAB00 TSB07 OCNL LTGCG VC W-VC N TS VC W-VC N MOV NE P0008 T01940150
KPHL 251907Z 25020G24KT 7SM -TSRA SCT043CB BKN080 BKN220 24/16 A2971 RMK AO2 LTG DSNT N AND SW RAB00 TSB07 PRESRR OCNL LTGCG W-N CB W-N MOV NE P0000 T02390156
KPHL 251854Z 26011KT 10SM SCT050 BKN080 BKN220 24/14 A2968 RMK AO2 LTG DSNT SW AND W SLP050 T02440144
KPHL 251754Z 25005KT 10SM SCT090 SCT220 23/14 A2970 RMK AO2 SLP055 T02330139 10239 20161 56020
KPHL 251654Z 21009G18KT 10SM BKN100 BKN220 22/14 A2971 RMK AO2 SLP060 T02170144
KPHL 251554Z 21008KT 10SM BKN090 BKN110 21/14 A2973 RMK AO2 SLP067 T02060139
KPHL 251454Z 20007KT 10SM BKN090 OVC200 21/14 A2976 RMK AO2 SLP075 T02060139 58017
KPHL 251354Z 21007KT 10SM OVC190 19/14 A2978 RMK AO2 SLP084 T01940139
KPHL 251254Z 20009KT 10SM FEW090 BKN200 18/14 A2980 RMK AO2 SLP090 T01780139
KPHL 251154Z 16006KT 10SM SCT080 BKN200 16/14 A2981 RMK AO2 SLP092 60001 70001 T01610139 10172 20156 58016
KPHL 251054Z 16004KT 10SM BKN080 BKN250 16/14 A2982 RMK AO2 SLP099 T01610139
KPHL 250954Z 13004KT 10SM OVC075 16/13 A2984 RMK AO2 SLP103 T01610133
KPHL 250854Z 14004KT 10SM OVC070 16/13 A2985 RMK AO2 RAE45 SLP108 P0001 60001 T01610128 56016
KPHL 250754Z 21004KT 10SM -RA FEW060 BKN075 OVC090 17/12 A2987 RMK AO2 RAB48 SLP115 P0000 T01670122
KPHL 250654Z 19005KT 10SM BKN075 17/11 A2988 RMK AO2 SLP117 T01720111
KPHL 250554Z 19007KT 10SM OVC075 17/11 A2990 RMK AO2 SLP124 T01720111 10189 20167 56011
KPHL 250454Z 22005KT 10SM OVC080 18/11 A2991 RMK AO2 SLP127 T01780111 402170094
KPHL 250354Z 22007KT 10SM OVC085 17/10 A2992 RMK AO2 SLP131 T01720100
KPHL 250254Z 22009KT 10SM BKN090 17/09 A2993 RMK AO2 SLP136 T01720094 58002
KPHL 250154Z 23011KT 10SM SCT100 17/08 A2994 RMK AO2 SLP137 T01720083
KPHL 250054Z 23009KT 10SM CLR 18/08 A2994 RMK AO2 SLP137 T01830083
KPHL 242354Z 23009KT 10SM CLR 19/09 A2994 RMK AO2 SLP137 T01890089 10217 20189 56006
KPHL 242254Z 26008KT 10SM FEW250 20/06 A2994 RMK AO2 SLP138 T02000061
KPHL 242154Z 27010KT 10SM FEW250 21/07 A2995 RMK AO2 SLP140 T02110067
KPHL 242054Z 25010KT 10SM FEW250 22/06 A2996 RMK AO2 SLP143 T02170056 56021
KPHL 241954Z 27009G15KT 10SM FEW250 21/06 A2997 RMK AO2 SLP149 T02110056
KPHL 241854Z 26008G15KT 10SM CLR 21/06 A3000 RMK AO2 SLP158 T02060056
KPHL 241754Z 24013KT 10SM SCT170 SCT260 19/06 A3002 RMK AO2 SLP164 T01940061 10194 20111 58027
KPHL 241654Z 25006KT 10SM SCT170 SCT260 18/06 A3005 RMK AO2 SLP176 T01830056
KPHL 241554Z 28011KT 10SM BKN170 BKN260 17/06 A3007 RMK AO2 SLP183 T01720061
KPHL 241454Z 26010KT 10SM FEW120 BKN190 BKN280 14/06 A3010 RMK AO2 SLP191 T01440061 58004
KPHL 241354Z 25009KT 10SM FEW100 BKN210 BKN280 13/06 A3011 RMK AO2 SLP196 T01330056
KPHL 241254Z 30006KT 10SM FEW080 BKN240 BKN280 12/05 A3011 RMK AO2 SLP194 T01220050
KPHL 241154Z 27009KT 10SM FEW080 SCT220 BKN280 11/04 A3011 RMK AO2 SLP196 T01110039 10117 20094 53009
KPHL 241054Z 27007KT 10SM BKN260 11/04 A3009 RMK AO2 SLP189 T01060039
KPHL 240954Z 27007KT 10SM BKN260 09/04 A3008 RMK AO2 SLP185 T00940039
KPHL 240854Z 28006KT 10SM BKN250 10/04 A3008 RMK AO2 SLP187 T01000039 58004
KPHL 240754Z 28010KT 10SM BKN250 11/03 A3010 RMK AO2 SLP191 T01110033
KPHL 240654Z 27008KT 10SM SCT250 11/03 A3009 RMK AO2 SLP190 T01110033
KPHL 240554Z 30007KT 10SM SCT250 12/03 A3010 RMK AO2 SLP191 T01170028 10167 20111 51003
KPHL 240454Z 34004KT 10SM BKN250 12/03 A3009 RMK AO2 SLP189 T01170028 402000111
KPHL 240354Z 36007KT 10SM FEW150 SCT250 12/03 A3010 RMK AO2 SLP192 T01220028
KPHL 240254Z 01011G16KT 10SM CLR 13/03 A3009 RMK AO2 SLP188 T01330028 51020
KPHL 240154Z 36012KT 10SM CLR 14/02 A3006 RMK AO2 SLP179 T01440017
KPHL 240054Z 33011G19KT 10SM CLR 16/01 A3005 RMK AO2 SLP176 T01560006
KPHL 232354Z 33010KT 10SM CLR 17/01 A3003 RMK AO2 SLP167 T01670006 10200 20167 53021
KPHL 232254Z 31013KT 10SM CLR 18/01 A3000 RMK AO2 SLP159 T01830011
KPHL 232154Z 32013KT 10SM CLR 19/02 A2998 RMK AO2 SLP151 T01940017
KPHL 232054Z 33019G25KT 10SM CLR 19/02 A2996 RMK AO2 PK WND 33030/2018 SLP146 T01940017 55003